Latest Weather Observations for Horsley Park

IDN60801

Issued at 10:35 pm EST Friday 18 April 2014 (issued every 30 minutes, with the page automatically refreshed every 10 minutes)

About weather observations | Map of weather stations | Latest weather observations for NSW | Other Formats
Station Details ID: 067119 Name: HORSLEY PARK EQUESTRIAN CENTRE AWS Lat: -33.85 Lon: 150.86 Height: 100.0 m
Data from the previous 72 hours. | See also: Recent months at Horsley Park
Date/Time
EST
Temp
°C
App
Temp
°C
Dew
Point
Rel
Hum
%
Delta-T
°C
Wind Press
QNH
hPa
Press
MSL
hPa
Rain
since 9 am
mm
Dir
 
Spd
km/h
Gust
km/h
Spd
kts
Gust
kts
18/10:30pm 15.7 14.3 8.9 64 3.5 WNW 6 9 3 5 - - 0.0
18/10:00pm 16.0 14.6 9.0 63 3.6 NW 6 7 3 4 - - 0.0
18/09:30pm 16.8 15.3 9.0 60 4.0 NW 7 11 4 6 - - 0.0
18/09:00pm 16.4 15.7 8.6 60 4.0 W 2 7 1 4 - - 0.0
18/08:30pm 17.5 16.3 8.1 54 4.8 WNW 4 7 2 4 - - 0.0
18/08:00pm 19.3 17.8 8.3 49 5.7 W 6 7 3 4 - - 0.0
18/07:30pm 19.8 18.3 9.1 50 5.7 W 7 11 4 6 - - 0.0
18/07:00pm 17.0 16.8 8.9 59 4.2 CALM 0 0 0 0 - - 0.0
18/06:30pm 19.0 17.9 8.4 50 5.5 W 4 6 2 3 - - 0.0
18/06:00pm 20.1 18.5 8.1 46 6.2 WSW 6 7 3 4 - - 0.0
18/05:30pm 21.0 18.8 8.0 43 6.8 WSW 9 15 5 8 - - 0.0
18/05:00pm 22.2 19.6 7.6 39 7.6 SW 11 19 6 10 - - 0.0
18/04:30pm 23.4 20.9 8.3 38 8.0 SW 11 20 6 11 - - 0.0
18/04:00pm 23.7 20.3 7.8 36 8.4 SW 15 24 8 13 - - 0.0
18/03:30pm 24.7 21.4 8.2 35 8.8 WSW 15 24 8 13 - - 0.0
18/03:00pm 24.7 21.4 8.2 35 8.8 WSW 15 22 8 12 - - 0.0
18/02:30pm 24.6 22.2 8.5 36 8.7 WSW 11 24 6 13 - - 0.0
18/02:00pm 24.3 22.3 8.7 37 8.4 W 9 19 5 10 - - 0.0
18/01:30pm 23.9 23.0 9.1 39 8.0 W 4 11 2 6 - - 0.0
18/01:00pm 23.0 21.1 9.0 41 7.5 W 9 17 5 9 - - 0.0
18/12:30pm 22.8 20.9 9.2 42 7.3 NNW 9 15 5 8 - - 0.0
18/12:00pm 22.4 21.1 9.9 45 6.8 NW 7 19 4 10 - - 0.0
18/11:30am 21.8 20.4 9.7 46 6.6 WNW 7 13 4 7 - - 0.0
18/11:00am 21.3 20.6 9.9 48 6.2 W 4 9 2 5 - - 0.0
18/10:30am 19.7 18.7 10.4 55 5.0 WSW 6 9 3 5 - - 0.0
18/10:00am 18.5 17.9 10.3 59 4.4 WSW 4 7 2 4 - - 0.0
18/09:30am 17.4 17.0 11.0 66 3.5 NW 4 7 2 4 - - 0.0
18/09:00am 16.4 15.6 11.1 71 2.9 WNW 6 9 3 5 - - 0.0
18/08:30am 15.3 15.3 11.1 76 2.3 WNW 2 4 1 2 - - 0.0
18/08:00am 13.8 12.9 10.6 81 1.7 WNW 6 7 3 4 - - 0.0
18/07:30am 12.6 11.9 10.1 85 1.3 NW 4 6 2 3 - - 0.0
18/07:00am 11.9 11.6 10.0 88 1.0 W 2 4 1 2 - - 0.0
18/06:30am 11.4 10.6 9.7 89 0.9 W 4 6 2 3 - - 0.0
18/06:00am 10.8 9.8 8.9 88 0.9 W 4 6 2 3 - - 0.0
18/05:30am 11.4 10.4 9.0 85 1.2 WSW 4 7 2 4 - - 0.0
18/05:00am 12.4 10.6 9.6 83 1.4 WSW 9 15 5 8 - - 0.0
18/04:30am 12.7 11.0 9.9 83 1.4 SW 9 13 5 7 - - 0.0
18/04:00am 12.8 11.4 9.6 81 1.6 WSW 7 11 4 6 - - 0.0
18/03:30am 13.1 11.4 9.9 81 1.7 SW 9 13 5 7 - - 0.0
18/03:00am 13.1 11.4 9.9 81 1.7 WSW 9 11 5 6 - - 0.0
18/02:30am 13.2 11.2 10.0 81 1.7 WSW 11 15 6 8 - - 0.0
18/02:00am 13.2 11.2 10.0 81 1.7 WSW 11 13 6 7 - - 0.0
18/01:30am 13.4 12.1 9.8 79 1.9 WSW 7 13 4 7 - - 0.0
18/01:00am 13.8 12.5 10.0 78 2.0 WSW 7 13 4 7 - - 0.0
18/12:30am 13.9 12.8 9.9 77 2.1 WSW 6 9 3 5 - - 0.0
18/12:00am 14.2 13.0 10.4 78 2.0 WSW 7 11 4 6 - - 0.0
 
Date/Time
EST
Temp
°C
App
Temp
°C
Dew
Point
Rel
Hum
%
Delta-T
°C
Wind Press
QNH
hPa
Press
MSL
hPa
Rain
since 9 am
mm
Dir
 
Spd
km/h
Gust
km/h
Spd
kts
Gust
kts
17/11:30pm 14.0 12.9 10.6 80 1.8 WSW 7 11 4 6 - - 0.0
17/11:00pm 14.3 13.3 10.9 80 1.8 WSW 7 11 4 6 - - 0.0
17/10:30pm 14.6 13.7 11.4 81 1.7 WSW 7 11 4 6 - - 0.0
17/10:00pm 14.9 14.4 11.9 82 1.6 W 6 9 3 5 - - 0.0
17/09:30pm 15.1 15.0 12.1 82 1.6 W 4 7 2 4 - - 0.0
17/09:00pm 14.9 14.8 12.0 83 1.6 W 4 6 2 3 - - 0.0
17/08:30pm 14.2 14.0 11.7 85 1.3 W 4 6 2 3 - - 0.0
17/08:00pm 15.4 15.4 12.5 83 1.6 WNW 4 6 2 3 - - 0.0
17/07:30pm 16.3 16.3 12.3 77 2.2 S 4 6 2 3 - - 0.0
17/07:00pm 17.1 16.6 12.2 73 2.7 S 6 9 3 5 - - 0.0
17/06:30pm 17.5 16.9 12.2 71 2.9 SSE 7 15 4 8 - - 0.0
17/06:00pm 17.9 16.6 12.4 70 3.1 SSE 11 17 6 9 - - 0.0
17/05:30pm 18.6 16.5 12.4 67 3.5 SE 15 22 8 12 - - 0.0
17/05:00pm 19.4 17.0 11.4 60 4.4 SE 15 24 8 13 - - 0.0
17/04:30pm 20.4 18.4 10.2 52 5.5 SSE 11 22 6 12 - - 0.0
17/04:00pm 21.2 18.9 10.4 50 5.9 SE 13 19 7 10 - - 0.0
17/03:30pm 21.8 19.6 9.3 45 6.7 SE 11 19 6 10 - - 0.0
17/03:00pm 22.2 20.3 9.0 43 7.1 SE 9 15 5 8 - - 0.0
17/02:30pm 22.2 20.6 8.7 42 7.2 S 7 13 4 7 - - 0.0
17/02:00pm 22.4 20.8 8.1 40 7.5 SW 6 11 3 6 - - 0.0
17/01:30pm 21.7 19.6 8.2 42 7.1 S 9 13 5 7 - - 0.0
17/01:00pm 22.2 20.2 8.7 42 7.2 SW 9 17 5 9 - - 0.0
17/12:30pm 22.2 19.7 8.0 40 7.5 S 11 20 6 11 - - 0.0
17/12:00pm 21.8 20.1 9.7 46 6.6 S 9 19 5 10 - - 0.0
17/11:30am 21.5 19.5 10.3 49 6.1 S 11 17 6 9 - - 0.0
17/11:00am 20.6 18.8 9.5 49 5.9 SSW 9 19 5 10 - - 0.0
17/10:30am 20.4 18.7 11.1 55 5.1 SSW 11 20 6 11 - - 0.0
17/10:00am 19.3 17.3 10.0 55 5.0 SW 11 17 6 9 - - 0.0
17/09:30am 18.7 17.8 12.5 67 3.5 SW 9 19 5 10 - - 0.0
17/09:00am 17.4 15.8 11.4 68 3.3 SW 11 17 6 9 - - 0.0
17/08:30am 16.2 14.3 10.5 69 3.0 WSW 11 19 6 10 - - 0.0
17/08:00am 15.4 13.5 10.6 73 2.5 SW 11 19 6 10 - - 0.0
17/07:30am 14.1 11.8 10.3 78 2.0 WSW 13 17 7 9 - - 0.0
17/07:00am 13.2 11.2 10.0 81 1.7 SW 11 15 6 8 - - 0.0
17/06:30am 12.8 10.7 9.8 82 1.5 WSW 11 15 6 8 - - 0.0
17/06:00am 12.6 10.9 9.8 83 1.4 SW 9 13 5 7 - - 0.0
17/05:30am 12.6 10.9 9.8 83 1.4 WSW 9 13 5 7 - - 0.0
17/05:00am 12.8 11.1 9.8 82 1.5 WSW 9 11 5 6 - - 0.0
17/04:30am 12.7 11.3 9.7 82 1.5 WSW 7 9 4 5 - - 0.0
17/04:00am 12.9 11.5 9.7 81 1.6 WSW 7 9 4 5 - - 0.0
17/03:30am 13.1 11.7 9.7 80 1.7 WSW 7 11 4 6 - - 0.0
17/03:00am 13.5 11.8 9.9 79 1.9 WSW 9 13 5 7 - - 0.0
17/02:30am 13.5 11.4 9.9 79 1.9 WSW 11 15 6 8 - - 0.0
17/02:00am 13.4 11.7 9.8 79 1.9 WSW 9 15 5 8 - - 0.0
17/01:30am 13.4 12.1 9.8 79 1.9 WSW 7 11 4 6 - - 0.0
17/01:00am 13.4 12.1 10.0 80 1.8 WSW 7 11 4 6 - - 0.0
17/12:30am 13.4 12.2 10.2 81 1.7 WSW 7 9 4 5 - - 0.0
17/12:00am 13.6 12.4 10.4 81 1.7 WSW 7 9 4 5 - - 0.0
 
Date/Time
EST
Temp
°C
App
Temp
°C
Dew
Point
Rel
Hum
%
Delta-T
°C
Wind Press
QNH
hPa
Press
MSL
hPa
Rain
since 9 am
mm
Dir
 
Spd
km/h
Gust
km/h
Spd
kts
Gust
kts
16/11:30pm 13.8 12.6 10.4 80 1.8 WSW 7 11 4 6 - - 0.0
16/11:00pm 14.4 12.5 10.6 78 2.0 WSW 11 15 6 8 - - 0.0
16/10:30pm 14.4 13.0 10.8 79 1.9 WSW 9 13 5 7 - - 0.0
16/10:00pm 14.9 13.8 10.7 76 2.2 WSW 7 11 4 6 - - 0.0
16/09:30pm 15.3 14.2 10.7 74 2.4 WSW 7 9 4 5 - - 0.0
16/09:00pm 16.1 14.7 10.8 71 2.8 SW 9 11 5 6 - - 0.0
16/08:30pm 16.0 14.7 11.4 74 2.5 SW 9 13 5 7 - - 0.0
16/08:00pm 16.2 15.4 11.6 74 2.5 SW 7 11 4 6 - - 0.0
16/07:30pm 15.8 14.6 11.6 76 2.3 SSW 9 13 5 7 - - 0.0
16/07:00pm 16.4 15.6 11.6 73 2.6 SSW 7 11 4 6 - - 0.0
16/06:30pm 16.9 16.0 11.4 70 3.0 S 7 9 4 5 - - 0.0
16/06:00pm 17.8 16.5 11.4 66 3.5 S 9 15 5 8 - - 0.0
16/05:30pm 18.3 16.2 11.1 63 3.9 SSE 13 20 7 11 - - 0.0
16/05:00pm 19.0 16.5 11.1 60 4.3 SSE 15 22 8 12 - - 0.0
16/04:30pm 20.0 17.8 10.7 55 5.1 SE 13 17 7 9 - - 0.0
16/04:00pm 19.9 17.9 11.4 58 4.7 SE 13 20 7 11 - - 0.0
16/03:30pm 20.9 19.8 11.8 56 5.1 SSE 9 19 5 10 - - 0.0
16/03:00pm 20.9 19.2 11.3 54 5.3 SSE 11 19 6 10 - - 0.0
16/02:30pm 19.6 17.6 11.6 60 4.4 SSE 13 20 7 11 - - 0.0
16/02:00pm 21.9 22.2 12.2 54 5.5 ESE 2 6 1 3 - - 0.0
16/01:30pm 21.9 20.5 12.2 54 5.5 S 11 20 6 11 - - 0.0
16/01:00pm 20.6 19.5 11.8 57 4.9 S 9 17 5 9 - - 0.0
16/12:30pm 20.4 18.0 11.3 56 5.0 S 15 26 8 14 - - 0.0
16/12:00pm 20.3 18.5 12.0 59 4.6 S 13 20 7 11 - - 0.0
16/11:30am 20.5 18.5 11.4 56 5.0 S 13 20 7 11 - - 0.0
16/11:00am 20.0 18.2 12.0 60 4.5 SW 13 20 7 11 - - 0.0
16/10:30am 19.9 17.4 12.2 61 4.3 SW 17 24 9 13 - - 0.0
16/10:00am 19.7 17.2 12.2 62 4.2 SW 17 24 9 13 - - 0.0
16/09:30am 18.4 15.5 11.0 62 4.0 SW 17 24 9 13 - - 0.0
16/09:00am 18.0 14.7 10.9 63 3.8 SW 19 24 10 13 - - 1.0
16/08:30am 17.2 14.1 10.3 64 3.7 SW 17 24 9 13 - - 1.0
16/08:00am 16.3 13.6 10.4 68 3.1 SW 15 24 8 13 - - 1.0
16/07:30am 16.1 13.2 9.8 66 3.3 WSW 15 20 8 11 - - 1.0
16/07:00am 15.8 13.4 10.1 69 3.0 SW 13 20 7 11 - - 1.0
16/06:30am 15.4 13.0 10.2 71 2.7 SW 13 20 7 11 - - 1.0
16/06:00am 15.2 12.8 10.0 71 2.7 SW 13 19 7 10 - - 1.0
16/05:30am 15.1 13.1 10.1 72 2.6 SW 11 19 6 10 - - 1.0
16/05:00am 15.2 12.5 10.2 72 2.6 SW 15 20 8 11 - - 1.0
16/04:30am 15.1 12.4 10.3 73 2.5 SW 15 22 8 12 - - 1.0
16/04:00am 14.9 12.2 10.3 74 2.4 SW 15 22 8 12 - - 1.0
16/03:30am 14.9 11.8 10.3 74 2.4 SW 17 26 9 14 - - 1.0
16/03:00am 14.8 12.5 10.4 75 2.3 SW 13 17 7 9 - - 1.0
16/02:30am 14.9 13.0 10.5 75 2.3 SW 11 19 6 10 - - 1.0
16/02:00am 15.0 13.5 10.4 74 2.4 WSW 9 15 5 8 - - 1.0
16/01:30am 15.3 13.8 10.5 73 2.5 SW 9 17 5 9 - - 1.0
16/01:00am 15.7 14.4 11.1 74 2.5 SW 9 17 5 9 - - 1.0
16/12:30am 16.3 15.1 11.7 74 2.5 SW 9 15 5 8 - - 1.0
16/12:00am 16.3 15.6 11.9 75 2.4 SW 7 15 4 8 - - 1.0
 
Date/Time
EST
Temp
°C
App
Temp
°C
Dew
Point
Rel
Hum
%
Delta-T
°C
Wind Press
QNH
hPa
Press
MSL
hPa
Rain
since 9 am
mm
Dir
 
Spd
km/h
Gust
km/h
Spd
kts
Gust
kts
15/11:30pm 16.4 15.0 12.2 76 2.3 SSW 11 17 6 9 - - 1.0
15/11:00pm 16.2 14.9 12.4 78 2.1 SW 11 19 6 10 - - 1.0

Other Formats:

Comma delimited format used in spreadsheet applications
http://www.bom.gov.au/fwo/IDN60801/IDN60801.94760.axf

JavaScript Object Notation format (JSON) in row-major order
http://www.bom.gov.au/fwo/IDN60801/IDN60801.94760.json